Jrs Mira — V2FS4 — position and weather

sailwx.info

Track history (hours):
 
Tides and Currents Weather Stations Pressure Air Temp Water Temp Dewpoint Dewpoint Depression Visibility Wind Speed Wind Dir Waves Ship Positions

Jrs Mira

Last reported at 2015-Jan-24 12:19 UTC. Time now 2015-Jan-28 06:42 UTC.
Position N 59°33' E 021°14'.

Length 107 m; draft 6.2 m.

Type: Cargo ship. MMSI: 305780000.

Date/timePositionNaut miles runAvg speedWind from/ knotsBaromVisibWave heightAir tempDewpointWater temp
2015-Jan-24 12:19N 59°33' E 021°14'810.7
2015-Jan-24 11:33N 59°32' E 021°30'9011.2
2015-Jan-24 03:33N 59°30' E 024°27'3 2.5
2015-Jan-24 02:28N 59°29' E 024°32'0 0.0
2015-Jan-24 01:31N 59°29' E 024°32'0 0.0
2015-Jan-24 00:31N 59°29' E 024°32'0 0.0
2015-Jan-23 23:31N 59°29' E 024°32'0 0.1
2015-Jan-23 22:25N 59°29' E 024°32'3 2.8
2015-Jan-23 21:31N 59°30' E 024°28'9 9.5
2015-Jan-23 20:33N 59°40' E 024°29'5811.1
2015-Jan-23 15:19N 60°06' E 026°12'911.8
2015-Jan-23 14:33N 60°13' E 026°24'1111.3
2015-Jan-23 13:33N 60°21' E 026°40'9 8.8
2015-Jan-23 12:33N 60°26' E 026°55'0 0.0
2015-Jan-23 11:33N 60°26' E 026°55'0 0.0
2015-Jan-23 10:33N 60°26' E 026°55'0 0.0
2015-Jan-23 09:33N 60°26' E 026°55'0 0.0
2015-Jan-23 08:33N 60°26' E 026°55'0 0.0
2015-Jan-23 07:33N 60°26' E 026°55'0 0.0
2015-Jan-23 06:33N 60°26' E 026°55'0 0.0
2015-Jan-23 05:30N 60°26' E 026°55'0 0.0
2015-Jan-23 04:33N 60°26' E 026°55'0 0.0
2015-Jan-23 03:27N 60°26' E 026°55'0 0.0
2015-Jan-23 02:33N 60°26' E 026°55'0 0.0
2015-Jan-23 01:33N 60°26' E 026°55'0 0.0
2015-Jan-23 00:33N 60°26' E 026°55'0 0.0
2015-Jan-22 23:33N 60°26' E 026°55'0 0.0
2015-Jan-22 22:33N 60°26' E 026°55'0 0.0
2015-Jan-22 21:33N 60°26' E 026°55'0 0.0
2015-Jan-22 20:33N 60°26' E 026°55'0 0.0
2015-Jan-22 19:33N 60°26' E 026°55'0 0.0
2015-Jan-22 18:33N 60°26' E 026°55'0 0.0
2015-Jan-22 17:33N 60°26' E 026°55'0 0.0
2015-Jan-22 16:33N 60°26' E 026°55'0 0.0
2015-Jan-22 15:33N 60°26' E 026°55'0 0.0
2015-Jan-22 14:33N 60°26' E 026°55'0 0.0
2015-Jan-22 13:33N 60°26' E 026°55'0 0.0
2015-Jan-22 12:33N 60°26' E 026°55'0 0.0
2015-Jan-22 11:33N 60°26' E 026°55'0 0.0
2015-Jan-22 10:33N 60°26' E 026°55'0 0.0
2015-Jan-22 09:33N 60°26' E 026°55'0 0.1
2015-Jan-22 08:33N 60°26' E 026°55'7 7.1
2015-Jan-22 07:33N 60°22' E 026°43'1010.4
2015-Jan-22 06:33N 60°15' E 026°27'6 5.6
2015-Jan-22 05:33N 60°10' E 026°21'5 4.7
2015-Jan-22 04:33N 60°07' E 026°15'49 9.0
2015-Jan-21 23:06N 59°46' E 024°47'310.1
2015-Jan-21 22:50N 59°45' E 024°41'1 9.9
2015-Jan-21 22:46N 59°45' E 024°40'210.1
2015-Jan-21 22:33N 59°44' E 024°36'381 9.7
2015-Jan-20 07:13N 55°38' E 015°32'710.6
2015-Jan-20 06:33N 55°34' E 015°21'1110.6
2015-Jan-20 05:33N 55°30' E 015°04'1110.7
2015-Jan-20 04:33N 55°26' E 014°47'1111.0
2015-Jan-20 03:33N 55°18' E 014°32'1111.1
2015-Jan-20 02:33N 55°10' E 014°20'1110.9
2015-Jan-20 01:33N 55°01' E 014°08'1111.1
2015-Jan-20 00:34N 54°58' E 013°50'1110.9
2015-Jan-19 23:33N 54°55' E 013°32'1110.7
2015-Jan-19 22:33N 54°51' E 013°14'1110.6
2015-Jan-19 21:33N 54°48' E 012°57'1010.5
2015-Jan-19 20:33N 54°44' E 012°40'1010.4
2015-Jan-19 19:33N 54°37' E 012°26'1010.1
2015-Jan-19 18:33N 54°29' E 012°16'9 9.0
2015-Jan-19 17:33N 54°24' E 012°03'1010.3
2015-Jan-19 16:33N 54°25' E 011°45'1110.8
2015-Jan-19 15:34N 54°30' E 011°28'1110.5
2015-Jan-19 14:33N 54°35' E 011°12'20 9.8
2015-Jan-19 12:33N 54°34' E 010°38'1110.8
2015-Jan-19 11:33N 54°30' E 010°21'15 5.0
2015-Jan-19 08:33N 54°21' E 009°60'8 7.5
2015-Jan-19 07:33N 54°22' E 009°47'8 7.7
2015-Jan-19 06:33N 54°16' E 009°38'8 7.4
2015-Jan-19 05:26N 54°11' E 009°27'5 5.2
2015-Jan-19 04:33N 54°08' E 009°20'6 6.1
2015-Jan-19 03:33N 54°02' E 009°18'4 4.3
2015-Jan-19 02:33N 53°58' E 009°16'3 3.3
2015-Jan-19 01:33N 53°56' E 009°12'1 1.3
2015-Jan-19 00:31N 53°55' E 009°11'0 0.0
2015-Jan-18 23:31N 53°55' E 009°11'2 1.6
2015-Jan-18 22:33N 53°54' E 009°09'2 2.2
2015-Jan-18 21:34N 53°53' E 009°05'0 0.1
2015-Jan-18 20:32N 53°53' E 009°06'0 0.0
2015-Jan-18 19:32N 53°53' E 009°05'0 0.2
2015-Jan-18 18:33N 53°53' E 009°05'6 6.5
2015-Jan-18 17:34N 53°51' E 008°55'7 7.2
2015-Jan-18 16:34N 53°52' E 008°43'7 7.1
2015-Jan-18 15:34N 53°58' E 008°35'8 8.5
2015-Jan-18 14:33N 53°59' E 008°21'1010.0
2015-Jan-18 13:33N 53°59' E 008°04'10 9.5
2015-Jan-18 12:31N 53°57' E 007°48'9 8.6
2015-Jan-18 11:31N 53°55' E 007°33'9 8.7
2015-Jan-18 10:29N 53°53' E 007°18'8 8.9
2015-Jan-18 09:33N 53°51' E 007°05'3110.5
2015-Jan-18 06:33N 53°43' E 006°13'1212.3
2015-Jan-18 05:33N 53°39' E 005°54'1312.7
2015-Jan-18 04:34N 53°35' E 005°33'1312.9
2015-Jan-18 03:33N 53°31' E 005°13'1313.4
2015-Jan-18 02:33N 53°26' E 004°52'1311.5
2015-Jan-18 01:27N 53°17' E 004°37'1312.1
2015-Jan-18 00:23N 53°05' E 004°27'3010.6
2015-Jan-17 21:32N 52°40' E 003°59'10 9.8
2015-Jan-17 20:32N 52°33' E 003°48'74 9.9
2015-Jan-17 13:03N 51°38' E 002°26'611.7
2015-Jan-17 12:34N 51°34' E 002°20'1211.9
2015-Jan-17 11:33N 51°25' E 002°08'1211.7
2015-Jan-17 10:33N 51°13' E 002°02'1212.5
2015-Jan-17 09:33N 51°06' E 001°46'1313.2
2015-Jan-17 08:33N 50°56' E 001°32'  
Track history (hours):
 
Tides and Currents Weather Stations Pressure Air Temp Water Temp Dewpoint Dewpoint Depression Visibility Wind Speed Wind Dir Waves Ship Positions

Jrs Mira

Last reported at 2015-Jan-24 12:19 UTC. Time now 2015-Jan-28 06:42 UTC.
Position N 59°33' E 021°14'.

Length 107 m; draft 6.2 m.

Type: Cargo ship. MMSI: 305780000.

Date/timePositionNaut miles runAvg speedWind from/ knotsBaromVisibWave heightAir tempDewpointWater temp
2015-Jan-24 12:19N 59°33' E 021°14'810.7
2015-Jan-24 11:33N 59°32' E 021°30'9011.2
2015-Jan-24 03:33N 59°30' E 024°27'3 2.5
2015-Jan-24 02:28N 59°29' E 024°32'0 0.0
2015-Jan-24 01:31N 59°29' E 024°32'0 0.0
2015-Jan-24 00:31N 59°29' E 024°32'0 0.0
2015-Jan-23 23:31N 59°29' E 024°32'0 0.1
2015-Jan-23 22:25N 59°29' E 024°32'3 2.8
2015-Jan-23 21:31N 59°30' E 024°28'9 9.5
2015-Jan-23 20:33N 59°40' E 024°29'5811.1
2015-Jan-23 15:19N 60°06' E 026°12'911.8
2015-Jan-23 14:33N 60°13' E 026°24'1111.3
2015-Jan-23 13:33N 60°21' E 026°40'9 8.8
2015-Jan-23 12:33N 60°26' E 026°55'0 0.0
2015-Jan-23 11:33N 60°26' E 026°55'0 0.0
2015-Jan-23 10:33N 60°26' E 026°55'0 0.0
2015-Jan-23 09:33N 60°26' E 026°55'0 0.0
2015-Jan-23 08:33N 60°26' E 026°55'0 0.0
2015-Jan-23 07:33N 60°26' E 026°55'0 0.0
2015-Jan-23 06:33N 60°26' E 026°55'0 0.0
2015-Jan-23 05:30N 60°26' E 026°55'0 0.0
2015-Jan-23 04:33N 60°26' E 026°55'0 0.0
2015-Jan-23 03:27N 60°26' E 026°55'0 0.0
2015-Jan-23 02:33N 60°26' E 026°55'0 0.0
2015-Jan-23 01:33N 60°26' E 026°55'0 0.0
2015-Jan-23 00:33N 60°26' E 026°55'0 0.0
2015-Jan-22 23:33N 60°26' E 026°55'0 0.0
2015-Jan-22 22:33N 60°26' E 026°55'0 0.0
2015-Jan-22 21:33N 60°26' E 026°55'0 0.0
2015-Jan-22 20:33N 60°26' E 026°55'0 0.0
2015-Jan-22 19:33N 60°26' E 026°55'0 0.0
2015-Jan-22 18:33N 60°26' E 026°55'0 0.0
2015-Jan-22 17:33N 60°26' E 026°55'0 0.0
2015-Jan-22 16:33N 60°26' E 026°55'0 0.0
2015-Jan-22 15:33N 60°26' E 026°55'0 0.0
2015-Jan-22 14:33N 60°26' E 026°55'0 0.0
2015-Jan-22 13:33N 60°26' E 026°55'0 0.0
2015-Jan-22 12:33N 60°26' E 026°55'0 0.0
2015-Jan-22 11:33N 60°26' E 026°55'0 0.0
2015-Jan-22 10:33N 60°26' E 026°55'0 0.0
2015-Jan-22 09:33N 60°26' E 026°55'0 0.1
2015-Jan-22 08:33N 60°26' E 026°55'7 7.1
2015-Jan-22 07:33N 60°22' E 026°43'1010.4
2015-Jan-22 06:33N 60°15' E 026°27'6 5.6
2015-Jan-22 05:33N 60°10' E 026°21'5 4.7
2015-Jan-22 04:33N 60°07' E 026°15'49 9.0
2015-Jan-21 23:06N 59°46' E 024°47'310.1
2015-Jan-21 22:50N 59°45' E 024°41'1 9.9
2015-Jan-21 22:46N 59°45' E 024°40'210.1
2015-Jan-21 22:33N 59°44' E 024°36'381 9.7
2015-Jan-20 07:13N 55°38' E 015°32'710.6
2015-Jan-20 06:33N 55°34' E 015°21'1110.6
2015-Jan-20 05:33N 55°30' E 015°04'1110.7
2015-Jan-20 04:33N 55°26' E 014°47'1111.0
2015-Jan-20 03:33N 55°18' E 014°32'1111.1
2015-Jan-20 02:33N 55°10' E 014°20'1110.9
2015-Jan-20 01:33N 55°01' E 014°08'1111.1
2015-Jan-20 00:34N 54°58' E 013°50'1110.9
2015-Jan-19 23:33N 54°55' E 013°32'1110.7
2015-Jan-19 22:33N 54°51' E 013°14'1110.6
2015-Jan-19 21:33N 54°48' E 012°57'1010.5
2015-Jan-19 20:33N 54°44' E 012°40'1010.4
2015-Jan-19 19:33N 54°37' E 012°26'1010.1
2015-Jan-19 18:33N 54°29' E 012°16'9 9.0
2015-Jan-19 17:33N 54°24' E 012°03'1010.3
2015-Jan-19 16:33N 54°25' E 011°45'1110.8
2015-Jan-19 15:34N 54°30' E 011°28'1110.5
2015-Jan-19 14:33N 54°35' E 011°12'20 9.8
2015-Jan-19 12:33N 54°34' E 010°38'1110.8
2015-Jan-19 11:33N 54°30' E 010°21'15 5.0
2015-Jan-19 08:33N 54°21' E 009°60'8 7.5
2015-Jan-19 07:33N 54°22' E 009°47'8 7.7
2015-Jan-19 06:33N 54°16' E 009°38'8 7.4
2015-Jan-19 05:26N 54°11' E 009°27'5 5.2
2015-Jan-19 04:33N 54°08' E 009°20'6 6.1
2015-Jan-19 03:33N 54°02' E 009°18'4 4.3
2015-Jan-19 02:33N 53°58' E 009°16'3 3.3
2015-Jan-19 01:33N 53°56' E 009°12'1 1.3
2015-Jan-19 00:31N 53°55' E 009°11'0 0.0
2015-Jan-18 23:31N 53°55' E 009°11'2 1.6
2015-Jan-18 22:33N 53°54' E 009°09'2 2.2
2015-Jan-18 21:34N 53°53' E 009°05'0 0.1
2015-Jan-18 20:32N 53°53' E 009°06'0 0.0
2015-Jan-18 19:32N 53°53' E 009°05'0 0.2
2015-Jan-18 18:33N 53°53' E 009°05'6 6.5
2015-Jan-18 17:34N 53°51' E 008°55'7 7.2
2015-Jan-18 16:34N 53°52' E 008°43'7 7.1
2015-Jan-18 15:34N 53°58' E 008°35'8 8.5
2015-Jan-18 14:33N 53°59' E 008°21'1010.0
2015-Jan-18 13:33N 53°59' E 008°04'10 9.5
2015-Jan-18 12:31N 53°57' E 007°48'9 8.6
2015-Jan-18 11:31N 53°55' E 007°33'9 8.7
2015-Jan-18 10:29N 53°53' E 007°18'8 8.9
2015-Jan-18 09:33N 53°51' E 007°05'3110.5
2015-Jan-18 06:33N 53°43' E 006°13'1212.3
2015-Jan-18 05:33N 53°39' E 005°54'1312.7
2015-Jan-18 04:34N 53°35' E 005°33'1312.9
2015-Jan-18 03:33N 53°31' E 005°13'1313.4
2015-Jan-18 02:33N 53°26' E 004°52'1311.5
2015-Jan-18 01:27N 53°17' E 004°37'1312.1
2015-Jan-18 00:23N 53°05' E 004°27'3010.6
2015-Jan-17 21:32N 52°40' E 003°59'10 9.8
2015-Jan-17 20:32N 52°33' E 003°48'74 9.9
2015-Jan-17 13:03N 51°38' E 002°26'611.7
2015-Jan-17 12:34N 51°34' E 002°20'1211.9
2015-Jan-17 11:33N 51°25' E 002°08'1211.7
2015-Jan-17 10:33N 51°13' E 002°02'1212.5
2015-Jan-17 09:33N 51°06' E 001°46'1313.2
2015-Jan-17 08:33N 50°56' E 001°32'  

Dump ship's entire track history